Powell, Texas
Current Conditions -  °F | °C
As of 6:53 AM on Sunday 23 Nov 2014 (Local Time) from KCRS Reporting Station
Haze Haze  
Wind Chill: 59°   Ceiling: 700
Heat Index: 59°   Visibility: 5mi
Dew Point: 57°   Wind: 10mph
Humidity: 93%   Direction: 220°SW
Pressure: 29.63"   Gusts: NA
Location:  32.12°N, 96.32°W
Report Text: KCRS 231253Z AUTO 22009KT 5SM BR OVC007 15/14 A2963 RMK AO2 CIG 003V009 SLP032 T01500139
Loading
Personal Weather Stations






























Interactive Weather Map New forecast layout! Learn more

10-Day Weather Forecast

Advertisements
Track Severe Weather on mobile